sensor_id;sensor_type;location;lat;lon;timestamp;temperature;humidity
11229;DHT22;5671;47.936;8.716;2023-08-01T00:02:05;16.00;78.00
11229;DHT22;5671;47.936;8.716;2023-08-01T00:04:32;15.90;78.20
11229;DHT22;5671;47.936;8.716;2023-08-01T00:07:00;15.90;77.00
11229;DHT22;5671;47.936;8.716;2023-08-01T00:09:27;15.90;77.40
11229;DHT22;5671;47.936;8.716;2023-08-01T00:11:54;15.90;77.80
11229;DHT22;5671;47.936;8.716;2023-08-01T00:14:21;15.80;78.20
11229;DHT22;5671;47.936;8.716;2023-08-01T00:16:49;15.80;77.90
11229;DHT22;5671;47.936;8.716;2023-08-01T00:19:16;15.80;78.40
11229;DHT22;5671;47.936;8.716;2023-08-01T00:21:43;15.80;78.90
11229;DHT22;5671;47.936;8.716;2023-08-01T00:24:11;15.80;79.90
11229;DHT22;5671;47.936;8.716;2023-08-01T00:26:38;15.80;79.20
11229;DHT22;5671;47.936;8.716;2023-08-01T00:29:05;15.70;79.40
11229;DHT22;5671;47.936;8.716;2023-08-01T00:31:32;15.70;79.20
11229;DHT22;5671;47.936;8.716;2023-08-01T00:33:59;15.70;79.70
11229;DHT22;5671;47.936;8.716;2023-08-01T00:36:25;15.70;79.50
11229;DHT22;5671;47.936;8.716;2023-08-01T00:38:52;15.70;79.80
11229;DHT22;5671;47.936;8.716;2023-08-01T00:41:20;15.70;79.90
11229;DHT22;5671;47.936;8.716;2023-08-01T00:43:47;15.60;80.60
11229;DHT22;5671;47.936;8.716;2023-08-01T00:46:14;15.60;80.50
11229;DHT22;5671;47.936;8.716;2023-08-01T00:48:41;15.60;80.50
11229;DHT22;5671;47.936;8.716;2023-08-01T00:51:09;15.60;79.90
11229;DHT22;5671;47.936;8.716;2023-08-01T00:53:38;15.60;79.80
11229;DHT22;5671;47.936;8.716;2023-08-01T00:56:05;15.60;82.00
11229;DHT22;5671;47.936;8.716;2023-08-01T00:58:33;15.50;81.60
11229;DHT22;5671;47.936;8.716;2023-08-01T01:01:00;15.50;81.00
11229;DHT22;5671;47.936;8.716;2023-08-01T01:03:28;15.50;81.50
11229;DHT22;5671;47.936;8.716;2023-08-01T01:06:00;15.50;82.30
11229;DHT22;5671;47.936;8.716;2023-08-01T01:08:28;15.50;81.40
11229;DHT22;5671;47.936;8.716;2023-08-01T01:10:54;15.50;82.30
11229;DHT22;5671;47.936;8.716;2023-08-01T01:13:21;15.50;82.20
11229;DHT22;5671;47.936;8.716;2023-08-01T01:15:50;15.50;81.20
11229;DHT22;5671;47.936;8.716;2023-08-01T01:18:16;15.50;80.80
11229;DHT22;5671;47.936;8.716;2023-08-01T01:20:45;15.50;82.00
11229;DHT22;5671;47.936;8.716;2023-08-01T01:23:12;15.50;82.50
11229;DHT22;5671;47.936;8.716;2023-08-01T01:25:40;15.50;82.10
11229;DHT22;5671;47.936;8.716;2023-08-01T01:28:07;15.40;81.90
11229;DHT22;5671;47.936;8.716;2023-08-01T01:30:35;15.40;82.40
11229;DHT22;5671;47.936;8.716;2023-08-01T01:33:03;15.40;82.30
11229;DHT22;5671;47.936;8.716;2023-08-01T01:35:32;15.30;82.60
11229;DHT22;5671;47.936;8.716;2023-08-01T01:38:01;15.30;82.90
11229;DHT22;5671;47.936;8.716;2023-08-01T01:40:29;15.30;83.00
11229;DHT22;5671;47.936;8.716;2023-08-01T01:42:56;15.20;83.60
11229;DHT22;5671;47.936;8.716;2023-08-01T01:45:23;15.20;83.30
11229;DHT22;5671;47.936;8.716;2023-08-01T01:47:50;15.20;83.90
11229;DHT22;5671;47.936;8.716;2023-08-01T01:50:17;15.20;84.30
11229;DHT22;5671;47.936;8.716;2023-08-01T01:52:44;15.20;83.80
11229;DHT22;5671;47.936;8.716;2023-08-01T01:55:12;15.20;83.10
11229;DHT22;5671;47.936;8.716;2023-08-01T01:57:39;15.20;83.10
11229;DHT22;5671;47.936;8.716;2023-08-01T02:00:07;15.20;83.00
11229;DHT22;5671;47.936;8.716;2023-08-01T02:02:36;15.20;83.10
11229;DHT22;5671;47.936;8.716;2023-08-01T02:05:03;15.20;83.20
11229;DHT22;5671;47.936;8.716;2023-08-01T02:07:30;15.20;82.90
11229;DHT22;5671;47.936;8.716;2023-08-01T02:09:59;15.20;84.60
11229;DHT22;5671;47.936;8.716;2023-08-01T02:12:27;15.20;84.30
11229;DHT22;5671;47.936;8.716;2023-08-01T02:14:57;15.10;83.60
11229;DHT22;5671;47.936;8.716;2023-08-01T02:17:23;15.10;84.50
11229;DHT22;5671;47.936;8.716;2023-08-01T02:19:50;15.10;83.70
11229;DHT22;5671;47.936;8.716;2023-08-01T02:22:17;15.10;83.70
11229;DHT22;5671;47.936;8.716;2023-08-01T02:24:44;15.20;84.30
11229;DHT22;5671;47.936;8.716;2023-08-01T02:27:11;15.10;85.00
11229;DHT22;5671;47.936;8.716;2023-08-01T02:29:39;15.10;83.90
11229;DHT22;5671;47.936;8.716;2023-08-01T02:32:08;15.10;83.00
11229;DHT22;5671;47.936;8.716;2023-08-01T02:34:35;15.20;82.80
11229;DHT22;5671;47.936;8.716;2023-08-01T02:37:01;15.20;82.10
11229;DHT22;5671;47.936;8.716;2023-08-01T02:39:28;15.20;83.20
11229;DHT22;5671;47.936;8.716;2023-08-01T02:41:55;15.20;82.10
11229;DHT22;5671;47.936;8.716;2023-08-01T02:44:22;15.20;82.90
11229;DHT22;5671;47.936;8.716;2023-08-01T02:46:50;15.20;82.40
11229;DHT22;5671;47.936;8.716;2023-08-01T02:49:17;15.20;82.60
11229;DHT22;5671;47.936;8.716;2023-08-01T02:51:44;15.20;81.60
11229;DHT22;5671;47.936;8.716;2023-08-01T02:54:11;15.20;81.00
11229;DHT22;5671;47.936;8.716;2023-08-01T02:56:38;15.30;81.00
11229;DHT22;5671;47.936;8.716;2023-08-01T02:59:07;15.30;81.70
11229;DHT22;5671;47.936;8.716;2023-08-01T03:01:34;15.30;81.80
11229;DHT22;5671;47.936;8.716;2023-08-01T03:04:02;15.30;82.50
11229;DHT22;5671;47.936;8.716;2023-08-01T03:06:29;15.30;82.30
11229;DHT22;5671;47.936;8.716;2023-08-01T03:08:56;15.30;81.20
11229;DHT22;5671;47.936;8.716;2023-08-01T03:11:23;15.30;79.70
11229;DHT22;5671;47.936;8.716;2023-08-01T03:13:50;15.30;79.70
11229;DHT22;5671;47.936;8.716;2023-08-01T03:16:17;15.40;79.30
11229;DHT22;5671;47.936;8.716;2023-08-01T03:18:44;15.40;79.10
11229;DHT22;5671;47.936;8.716;2023-08-01T03:21:12;15.40;79.10
11229;DHT22;5671;47.936;8.716;2023-08-01T03:23:39;15.40;78.70
11229;DHT22;5671;47.936;8.716;2023-08-01T03:26:06;15.40;78.40
11229;DHT22;5671;47.936;8.716;2023-08-01T03:28:33;15.50;78.10
11229;DHT22;5671;47.936;8.716;2023-08-01T03:31:00;15.50;77.50
11229;DHT22;5671;47.936;8.716;2023-08-01T03:33:26;15.50;76.80
11229;DHT22;5671;47.936;8.716;2023-08-01T03:35:53;15.60;75.10
11229;DHT22;5671;47.936;8.716;2023-08-01T03:38:21;15.60;76.30
11229;DHT22;5671;47.936;8.716;2023-08-01T03:40:49;15.70;74.40
11229;DHT22;5671;47.936;8.716;2023-08-01T03:43:16;15.70;71.80
11229;DHT22;5671;47.936;8.716;2023-08-01T03:45:42;15.80;73.00
11229;DHT22;5671;47.936;8.716;2023-08-01T03:48:09;15.80;73.50
11229;DHT22;5671;47.936;8.716;2023-08-01T03:50:37;15.80;72.10
11229;DHT22;5671;47.936;8.716;2023-08-01T03:53:04;15.80;71.70
11229;DHT22;5671;47.936;8.716;2023-08-01T03:55:32;15.90;71.00
11229;DHT22;5671;47.936;8.716;2023-08-01T03:57:59;15.90;70.70
11229;DHT22;5671;47.936;8.716;2023-08-01T04:00:26;15.90;71.70
11229;DHT22;5671;47.936;8.716;2023-08-01T04:02:57;15.90;71.00
11229;DHT22;5671;47.936;8.716;2023-08-01T04:05:24;15.90;71.30
11229;DHT22;5671;47.936;8.716;2023-08-01T04:07:51;15.90;70.20
11229;DHT22;5671;47.936;8.716;2023-08-01T04:10:20;15.90;70.30
11229;DHT22;5671;47.936;8.716;2023-08-01T04:12:48;15.90;70.80
11229;DHT22;5671;47.936;8.716;2023-08-01T04:15:15;15.90;70.50
11229;DHT22;5671;47.936;8.716;2023-08-01T04:17:42;15.90;70.20
11229;DHT22;5671;47.936;8.716;2023-08-01T04:20:09;15.90;70.50
11229;DHT22;5671;47.936;8.716;2023-08-01T04:22:36;16.00;70.20
11229;DHT22;5671;47.936;8.716;2023-08-01T04:25:03;16.00;71.30
11229;DHT22;5671;47.936;8.716;2023-08-01T04:27:30;15.90;71.00
11229;DHT22;5671;47.936;8.716;2023-08-01T04:29:59;16.00;70.70
11229;DHT22;5671;47.936;8.716;2023-08-01T04:32:25;16.00;70.80
11229;DHT22;5671;47.936;8.716;2023-08-01T04:34:52;16.00;72.10
11229;DHT22;5671;47.936;8.716;2023-08-01T04:37:19;16.00;71.00
11229;DHT22;5671;47.936;8.716;2023-08-01T04:39:48;16.00;72.20
11229;DHT22;5671;47.936;8.716;2023-08-01T04:42:15;16.00;72.80
11229;DHT22;5671;47.936;8.716;2023-08-01T04:44:42;16.00;71.90
11229;DHT22;5671;47.936;8.716;2023-08-01T04:47:10;16.00;71.90
11229;DHT22;5671;47.936;8.716;2023-08-01T04:49:37;16.00;72.90
11229;DHT22;5671;47.936;8.716;2023-08-01T04:52:05;16.00;71.80
11229;DHT22;5671;47.936;8.716;2023-08-01T04:54:32;16.00;72.20
11229;DHT22;5671;47.936;8.716;2023-08-01T04:56:59;16.00;70.80
11229;DHT22;5671;47.936;8.716;2023-08-01T04:59:26;16.00;71.00
11229;DHT22;5671;47.936;8.716;2023-08-01T05:01:52;16.10;70.90
11229;DHT22;5671;47.936;8.716;2023-08-01T05:04:21;16.10;70.10
11229;DHT22;5671;47.936;8.716;2023-08-01T05:06:47;16.20;69.90
11229;DHT22;5671;47.936;8.716;2023-08-01T05:09:14;16.20;69.40
11229;DHT22;5671;47.936;8.716;2023-08-01T05:11:41;16.20;70.80
11229;DHT22;5671;47.936;8.716;2023-08-01T05:14:08;16.20;71.40
11229;DHT22;5671;47.936;8.716;2023-08-01T05:16:35;16.10;72.90
11229;DHT22;5671;47.936;8.716;2023-08-01T05:19:02;16.00;73.80
11229;DHT22;5671;47.936;8.716;2023-08-01T05:21:32;15.90;74.60
11229;DHT22;5671;47.936;8.716;2023-08-01T05:23:59;15.90;75.80
11229;DHT22;5671;47.936;8.716;2023-08-01T05:26:26;15.80;76.40
11229;DHT22;5671;47.936;8.716;2023-08-01T05:28:53;15.70;76.80
11229;DHT22;5671;47.936;8.716;2023-08-01T05:31:20;15.60;77.80
11229;DHT22;5671;47.936;8.716;2023-08-01T05:33:46;15.50;78.20
11229;DHT22;5671;47.936;8.716;2023-08-01T05:36:13;15.40;78.60
11229;DHT22;5671;47.936;8.716;2023-08-01T05:38:41;15.40;79.80
11229;DHT22;5671;47.936;8.716;2023-08-01T05:41:08;15.30;79.90
11229;DHT22;5671;47.936;8.716;2023-08-01T05:43:35;15.30;80.80
11229;DHT22;5671;47.936;8.716;2023-08-01T05:46:02;15.20;80.50
11229;DHT22;5671;47.936;8.716;2023-08-01T05:48:29;15.20;80.10
11229;DHT22;5671;47.936;8.716;2023-08-01T05:50:56;15.10;80.70
11229;DHT22;5671;47.936;8.716;2023-08-01T05:53:23;15.10;81.30
11229;DHT22;5671;47.936;8.716;2023-08-01T05:55:52;15.10;82.00
11229;DHT22;5671;47.936;8.716;2023-08-01T05:58:19;15.00;82.70
11229;DHT22;5671;47.936;8.716;2023-08-01T06:00:46;15.00;82.60
11229;DHT22;5671;47.936;8.716;2023-08-01T06:03:13;15.00;83.50
11229;DHT22;5671;47.936;8.716;2023-08-01T06:05:39;14.90;81.50
11229;DHT22;5671;47.936;8.716;2023-08-01T06:08:07;14.90;81.00
11229;DHT22;5671;47.936;8.716;2023-08-01T06:10:34;14.80;79.40
11229;DHT22;5671;47.936;8.716;2023-08-01T06:13:03;14.80;79.70
11229;DHT22;5671;47.936;8.716;2023-08-01T06:15:29;14.70;79.50
11229;DHT22;5671;47.936;8.716;2023-08-01T06:17:56;14.70;81.10
11229;DHT22;5671;47.936;8.716;2023-08-01T06:20:26;14.70;80.70
11229;DHT22;5671;47.936;8.716;2023-08-01T06:22:55;14.60;82.00
11229;DHT22;5671;47.936;8.716;2023-08-01T06:25:21;14.60;81.50
11229;DHT22;5671;47.936;8.716;2023-08-01T06:27:48;14.60;81.60
11229;DHT22;5671;47.936;8.716;2023-08-01T06:30:17;14.50;80.90
11229;DHT22;5671;47.936;8.716;2023-08-01T06:32:43;14.50;81.40
11229;DHT22;5671;47.936;8.716;2023-08-01T06:35:10;14.50;81.40
11229;DHT22;5671;47.936;8.716;2023-08-01T06:37:37;14.40;81.10
11229;DHT22;5671;47.936;8.716;2023-08-01T06:40:05;14.40;81.20
11229;DHT22;5671;47.936;8.716;2023-08-01T06:42:33;14.40;81.80
11229;DHT22;5671;47.936;8.716;2023-08-01T06:45:00;14.30;80.80
11229;DHT22;5671;47.936;8.716;2023-08-01T06:47:28;14.30;80.70
11229;DHT22;5671;47.936;8.716;2023-08-01T06:49:55;14.30;80.80
11229;DHT22;5671;47.936;8.716;2023-08-01T06:52:22;14.30;81.50
11229;DHT22;5671;47.936;8.716;2023-08-01T06:54:49;14.30;82.00
11229;DHT22;5671;47.936;8.716;2023-08-01T06:57:16;14.20;83.10
11229;DHT22;5671;47.936;8.716;2023-08-01T06:59:43;14.30;83.10
11229;DHT22;5671;47.936;8.716;2023-08-01T07:02:10;14.30;82.40
11229;DHT22;5671;47.936;8.716;2023-08-01T07:04:38;14.20;81.60
11229;DHT22;5671;47.936;8.716;2023-08-01T07:07:05;14.20;81.40
11229;DHT22;5671;47.936;8.716;2023-08-01T07:09:34;14.20;82.40
11229;DHT22;5671;47.936;8.716;2023-08-01T07:12:01;14.20;82.50
11229;DHT22;5671;47.936;8.716;2023-08-01T07:14:28;14.20;82.70
11229;DHT22;5671;47.936;8.716;2023-08-01T07:16:54;14.20;83.10
11229;DHT22;5671;47.936;8.716;2023-08-01T07:19:22;14.20;83.20
11229;DHT22;5671;47.936;8.716;2023-08-01T07:21:50;14.20;82.70
11229;DHT22;5671;47.936;8.716;2023-08-01T07:24:17;14.20;82.80
11229;DHT22;5671;47.936;8.716;2023-08-01T07:26:44;14.20;83.80
11229;DHT22;5671;47.936;8.716;2023-08-01T07:29:11;14.20;83.40
11229;DHT22;5671;47.936;8.716;2023-08-01T07:31:41;14.30;83.10
11229;DHT22;5671;47.936;8.716;2023-08-01T07:34:08;14.30;82.90
11229;DHT22;5671;47.936;8.716;2023-08-01T07:36:35;14.30;82.40
11229;DHT22;5671;47.936;8.716;2023-08-01T07:39:03;14.30;82.80
11229;DHT22;5671;47.936;8.716;2023-08-01T07:41:30;14.30;82.40
11229;DHT22;5671;47.936;8.716;2023-08-01T07:43:58;14.40;82.60
11229;DHT22;5671;47.936;8.716;2023-08-01T07:46:27;14.40;82.80
11229;DHT22;5671;47.936;8.716;2023-08-01T07:48:54;14.30;82.60
11229;DHT22;5671;47.936;8.716;2023-08-01T07:51:21;14.40;81.50
11229;DHT22;5671;47.936;8.716;2023-08-01T07:53:47;14.50;81.10
11229;DHT22;5671;47.936;8.716;2023-08-01T07:56:16;14.50;81.50
11229;DHT22;5671;47.936;8.716;2023-08-01T07:58:43;14.60;81.30
11229;DHT22;5671;47.936;8.716;2023-08-01T08:01:09;14.60;82.00
11229;DHT22;5671;47.936;8.716;2023-08-01T08:03:36;14.60;80.30
11229;DHT22;5671;47.936;8.716;2023-08-01T08:06:03;14.70;79.40
11229;DHT22;5671;47.936;8.716;2023-08-01T08:08:31;14.70;81.30
11229;DHT22;5671;47.936;8.716;2023-08-01T08:10:59;14.70;81.10
11229;DHT22;5671;47.936;8.716;2023-08-01T08:13:28;14.70;81.00
11229;DHT22;5671;47.936;8.716;2023-08-01T08:15:55;14.70;81.10
11229;DHT22;5671;47.936;8.716;2023-08-01T08:18:23;14.70;81.10
11229;DHT22;5671;47.936;8.716;2023-08-01T08:20:50;14.60;81.40
11229;DHT22;5671;47.936;8.716;2023-08-01T08:23:32;14.50;81.60
11229;DHT22;5671;47.936;8.716;2023-08-01T08:25:59;14.50;82.90
11229;DHT22;5671;47.936;8.716;2023-08-01T08:28:31;14.40;83.40
11229;DHT22;5671;47.936;8.716;2023-08-01T08:30:58;14.40;83.60
11229;DHT22;5671;47.936;8.716;2023-08-01T08:33:25;14.30;84.40
11229;DHT22;5671;47.936;8.716;2023-08-01T08:35:52;14.30;84.70
11229;DHT22;5671;47.936;8.716;2023-08-01T08:38:19;14.30;84.50
11229;DHT22;5671;47.936;8.716;2023-08-01T08:40:55;14.20;85.20
11229;DHT22;5671;47.936;8.716;2023-08-01T08:43:26;14.20;85.30
11229;DHT22;5671;47.936;8.716;2023-08-01T08:46:00;14.20;85.70
11229;DHT22;5671;47.936;8.716;2023-08-01T08:48:28;14.20;86.10
11229;DHT22;5671;47.936;8.716;2023-08-01T08:50:57;14.30;85.90
11229;DHT22;5671;47.936;8.716;2023-08-01T08:53:36;14.30;86.20
11229;DHT22;5671;47.936;8.716;2023-08-01T08:56:05;14.30;86.40
11229;DHT22;5671;47.936;8.716;2023-08-01T08:58:35;14.30;85.90
11229;DHT22;5671;47.936;8.716;2023-08-01T09:01:06;14.30;86.20
11229;DHT22;5671;47.936;8.716;2023-08-01T09:03:33;14.30;86.00
11229;DHT22;5671;47.936;8.716;2023-08-01T09:06:03;14.30;86.20
11229;DHT22;5671;47.936;8.716;2023-08-01T09:08:33;14.40;86.30
11229;DHT22;5671;47.936;8.716;2023-08-01T09:11:01;14.30;85.60
11229;DHT22;5671;47.936;8.716;2023-08-01T09:13:28;14.40;86.30
11229;DHT22;5671;47.936;8.716;2023-08-01T09:15:56;14.40;86.20
11229;DHT22;5671;47.936;8.716;2023-08-01T09:18:24;14.40;86.40
11229;DHT22;5671;47.936;8.716;2023-08-01T09:20:53;14.40;86.40
11229;DHT22;5671;47.936;8.716;2023-08-01T09:23:24;14.40;86.10
11229;DHT22;5671;47.936;8.716;2023-08-01T09:25:53;14.40;86.80
11229;DHT22;5671;47.936;8.716;2023-08-01T09:28:23;14.40;87.20
11229;DHT22;5671;47.936;8.716;2023-08-01T09:30:54;14.50;87.00
11229;DHT22;5671;47.936;8.716;2023-08-01T09:33:21;14.50;87.00
11229;DHT22;5671;47.936;8.716;2023-08-01T09:35:51;14.50;86.80
11229;DHT22;5671;47.936;8.716;2023-08-01T09:38:18;14.60;87.00
11229;DHT22;5671;47.936;8.716;2023-08-01T09:40:46;14.60;87.50
11229;DHT22;5671;47.936;8.716;2023-08-01T09:43:13;14.80;87.60
11229;DHT22;5671;47.936;8.716;2023-08-01T09:45:49;14.90;88.10
11229;DHT22;5671;47.936;8.716;2023-08-01T09:48:22;15.00;88.00
11229;DHT22;5671;47.936;8.716;2023-08-01T09:50:50;15.00;88.00
11229;DHT22;5671;47.936;8.716;2023-08-01T09:53:18;15.00;86.60
11229;DHT22;5671;47.936;8.716;2023-08-01T09:55:46;15.10;85.90
11229;DHT22;5671;47.936;8.716;2023-08-01T09:58:17;15.10;86.40
11229;DHT22;5671;47.936;8.716;2023-08-01T10:00:46;15.20;86.90
11229;DHT22;5671;47.936;8.716;2023-08-01T10:03:14;15.20;86.50
11229;DHT22;5671;47.936;8.716;2023-08-01T10:05:42;15.30;86.80
11229;DHT22;5671;47.936;8.716;2023-08-01T10:08:11;15.30;86.30
11229;DHT22;5671;47.936;8.716;2023-08-01T10:10:39;15.30;86.20
11229;DHT22;5671;47.936;8.716;2023-08-01T10:13:08;15.30;86.40
11229;DHT22;5671;47.936;8.716;2023-08-01T10:15:35;15.30;86.00
11229;DHT22;5671;47.936;8.716;2023-08-01T10:18:04;15.40;86.40
11229;DHT22;5671;47.936;8.716;2023-08-01T10:20:31;15.40;86.90
11229;DHT22;5671;47.936;8.716;2023-08-01T10:22:59;15.50;87.30
11229;DHT22;5671;47.936;8.716;2023-08-01T10:25:29;15.60;87.80
11229;DHT22;5671;47.936;8.716;2023-08-01T10:27:59;15.60;86.50
11229;DHT22;5671;47.936;8.716;2023-08-01T10:30:26;15.70;86.70
11229;DHT22;5671;47.936;8.716;2023-08-01T10:32:55;15.70;85.90
11229;DHT22;5671;47.936;8.716;2023-08-01T10:35:32;15.60;85.60
11229;DHT22;5671;47.936;8.716;2023-08-01T10:38:05;15.60;85.60
11229;DHT22;5671;47.936;8.716;2023-08-01T10:40:38;15.60;85.60
11229;DHT22;5671;47.936;8.716;2023-08-01T10:43:06;15.70;85.70
11229;DHT22;5671;47.936;8.716;2023-08-01T10:45:33;15.70;86.20
11229;DHT22;5671;47.936;8.716;2023-08-01T10:48:07;15.90;86.60
11229;DHT22;5671;47.936;8.716;2023-08-01T10:50:34;16.00;87.60
11229;DHT22;5671;47.936;8.716;2023-08-01T10:53:05;16.00;85.70
11229;DHT22;5671;47.936;8.716;2023-08-01T10:55:41;16.10;85.80
11229;DHT22;5671;47.936;8.716;2023-08-01T10:58:09;16.20;86.30
11229;DHT22;5671;47.936;8.716;2023-08-01T11:00:36;16.20;86.40
11229;DHT22;5671;47.936;8.716;2023-08-01T11:03:06;16.30;85.50
11229;DHT22;5671;47.936;8.716;2023-08-01T11:05:33;16.50;86.10
11229;DHT22;5671;47.936;8.716;2023-08-01T11:08:01;16.60;86.60
11229;DHT22;5671;47.936;8.716;2023-08-01T11:10:30;16.70;84.60
11229;DHT22;5671;47.936;8.716;2023-08-01T11:12:59;16.80;84.40
11229;DHT22;5671;47.936;8.716;2023-08-01T11:15:26;16.90;83.60
11229;DHT22;5671;47.936;8.716;2023-08-01T11:17:54;16.90;84.10
11229;DHT22;5671;47.936;8.716;2023-08-01T11:20:22;17.00;83.20
11229;DHT22;5671;47.936;8.716;2023-08-01T11:22:52;17.20;79.70
11229;DHT22;5671;47.936;8.716;2023-08-01T11:25:19;17.30;82.60
11229;DHT22;5671;47.936;8.716;2023-08-01T11:27:46;17.40;80.20
11229;DHT22;5671;47.936;8.716;2023-08-01T11:30:15;17.40;80.80
11229;DHT22;5671;47.936;8.716;2023-08-01T11:32:41;17.40;80.20
11229;DHT22;5671;47.936;8.716;2023-08-01T11:35:08;17.60;82.30
11229;DHT22;5671;47.936;8.716;2023-08-01T11:37:43;17.70;81.10
11229;DHT22;5671;47.936;8.716;2023-08-01T11:40:11;17.90;81.20
11229;DHT22;5671;47.936;8.716;2023-08-01T11:42:38;18.20;81.30
11229;DHT22;5671;47.936;8.716;2023-08-01T11:45:09;18.40;82.90
11229;DHT22;5671;47.936;8.716;2023-08-01T11:47:44;18.50;80.30
11229;DHT22;5671;47.936;8.716;2023-08-01T11:50:11;18.80;77.10
11229;DHT22;5671;47.936;8.716;2023-08-01T11:52:38;19.00;76.20
11229;DHT22;5671;47.936;8.716;2023-08-01T11:55:06;18.90;72.30
11229;DHT22;5671;47.936;8.716;2023-08-01T11:57:33;19.10;71.80
11229;DHT22;5671;47.936;8.716;2023-08-01T12:00:02;19.30;72.50
11229;DHT22;5671;47.936;8.716;2023-08-01T12:02:30;19.50;71.50
11229;DHT22;5671;47.936;8.716;2023-08-01T12:05:01;19.60;69.80
11229;DHT22;5671;47.936;8.716;2023-08-01T12:07:35;19.60;70.20
11229;DHT22;5671;47.936;8.716;2023-08-01T12:10:16;19.90;69.80
11229;DHT22;5671;47.936;8.716;2023-08-01T12:12:44;19.80;68.70
11229;DHT22;5671;47.936;8.716;2023-08-01T12:15:12;19.60;70.20
11229;DHT22;5671;47.936;8.716;2023-08-01T12:17:39;19.50;69.10
11229;DHT22;5671;47.936;8.716;2023-08-01T12:20:09;19.30;68.30
11229;DHT22;5671;47.936;8.716;2023-08-01T12:22:36;19.20;68.60
11229;DHT22;5671;47.936;8.716;2023-08-01T12:25:03;19.20;68.00
11229;DHT22;5671;47.936;8.716;2023-08-01T12:27:30;19.20;67.90
11229;DHT22;5671;47.936;8.716;2023-08-01T12:29:57;19.10;67.50
11229;DHT22;5671;47.936;8.716;2023-08-01T12:32:25;18.90;68.50
11229;DHT22;5671;47.936;8.716;2023-08-01T12:34:52;18.90;68.90
11229;DHT22;5671;47.936;8.716;2023-08-01T12:37:20;19.10;70.80
11229;DHT22;5671;47.936;8.716;2023-08-01T12:39:47;19.20;71.90
11229;DHT22;5671;47.936;8.716;2023-08-01T12:42:14;19.20;71.70
11229;DHT22;5671;47.936;8.716;2023-08-01T12:44:41;19.20;70.60
11229;DHT22;5671;47.936;8.716;2023-08-01T12:47:11;19.20;70.20
11229;DHT22;5671;47.936;8.716;2023-08-01T12:49:47;19.10;69.90
11229;DHT22;5671;47.936;8.716;2023-08-01T12:52:23;19.10;70.60
11229;DHT22;5671;47.936;8.716;2023-08-01T12:54:51;19.10;69.50
11229;DHT22;5671;47.936;8.716;2023-08-01T12:57:21;19.00;68.90
11229;DHT22;5671;47.936;8.716;2023-08-01T12:59:47;19.10;69.60
11229;DHT22;5671;47.936;8.716;2023-08-01T13:02:15;19.30;69.60
11229;DHT22;5671;47.936;8.716;2023-08-01T13:04:59;19.50;71.00
11229;DHT22;5671;47.936;8.716;2023-08-01T13:07:28;19.70;68.10
11229;DHT22;5671;47.936;8.716;2023-08-01T13:09:57;19.60;70.50
11229;DHT22;5671;47.936;8.716;2023-08-01T13:12:24;20.00;67.40
11229;DHT22;5671;47.936;8.716;2023-08-01T13:14:50;20.10;67.50
11229;DHT22;5671;47.936;8.716;2023-08-01T13:17:17;20.30;66.90
11229;DHT22;5671;47.936;8.716;2023-08-01T13:19:44;20.30;68.40
11229;DHT22;5671;47.936;8.716;2023-08-01T13:22:11;20.70;69.50
11229;DHT22;5671;47.936;8.716;2023-08-01T13:24:40;20.70;66.70
11229;DHT22;5671;47.936;8.716;2023-08-01T13:27:07;20.70;65.50
11229;DHT22;5671;47.936;8.716;2023-08-01T13:29:35;20.80;65.40
11229;DHT22;5671;47.936;8.716;2023-08-01T13:32:02;20.90;66.60
11229;DHT22;5671;47.936;8.716;2023-08-01T13:34:29;21.00;65.10
11229;DHT22;5671;47.936;8.716;2023-08-01T13:36:55;21.00;65.10
11229;DHT22;5671;47.936;8.716;2023-08-01T13:39:22;20.80;64.60
11229;DHT22;5671;47.936;8.716;2023-08-01T13:41:50;20.60;65.00
11229;DHT22;5671;47.936;8.716;2023-08-01T13:44:17;20.60;66.20
11229;DHT22;5671;47.936;8.716;2023-08-01T13:46:54;20.50;65.80
11229;DHT22;5671;47.936;8.716;2023-08-01T13:49:21;20.30;66.60
11229;DHT22;5671;47.936;8.716;2023-08-01T13:51:48;20.10;67.60
11229;DHT22;5671;47.936;8.716;2023-08-01T13:54:15;19.90;67.50
11229;DHT22;5671;47.936;8.716;2023-08-01T13:56:42;19.80;65.50
11229;DHT22;5671;47.936;8.716;2023-08-01T13:59:10;19.60;66.10
11229;DHT22;5671;47.936;8.716;2023-08-01T14:01:37;19.40;65.70
11229;DHT22;5671;47.936;8.716;2023-08-01T14:04:04;19.40;68.10
11229;DHT22;5671;47.936;8.716;2023-08-01T14:06:31;19.40;67.00
11229;DHT22;5671;47.936;8.716;2023-08-01T14:08:58;19.80;67.30
11229;DHT22;5671;47.936;8.716;2023-08-01T14:11:25;19.70;67.40
11229;DHT22;5671;47.936;8.716;2023-08-01T14:13:51;19.60;68.20
11229;DHT22;5671;47.936;8.716;2023-08-01T14:16:20;19.60;67.40
11229;DHT22;5671;47.936;8.716;2023-08-01T14:18:46;19.50;67.20
11229;DHT22;5671;47.936;8.716;2023-08-01T14:21:13;19.30;67.90
11229;DHT22;5671;47.936;8.716;2023-08-01T14:23:41;19.20;67.40
11229;DHT22;5671;47.936;8.716;2023-08-01T14:26:08;19.10;67.00
11229;DHT22;5671;47.936;8.716;2023-08-01T14:28:35;19.00;68.20
11229;DHT22;5671;47.936;8.716;2023-08-01T14:31:03;19.00;67.20
11229;DHT22;5671;47.936;8.716;2023-08-01T14:33:31;19.20;65.60
11229;DHT22;5671;47.936;8.716;2023-08-01T14:35:58;19.20;65.20
11229;DHT22;5671;47.936;8.716;2023-08-01T14:38:25;19.20;64.20
11229;DHT22;5671;47.936;8.716;2023-08-01T14:40:52;19.30;63.70
11229;DHT22;5671;47.936;8.716;2023-08-01T14:43:19;19.70;63.40
11229;DHT22;5671;47.936;8.716;2023-08-01T14:45:46;19.90;60.80
11229;DHT22;5671;47.936;8.716;2023-08-01T14:48:13;20.20;61.40
11229;DHT22;5671;47.936;8.716;2023-08-01T14:50:41;20.30;61.60
11229;DHT22;5671;47.936;8.716;2023-08-01T14:53:08;20.50;62.30
11229;DHT22;5671;47.936;8.716;2023-08-01T14:55:35;20.60;59.10
11229;DHT22;5671;47.936;8.716;2023-08-01T14:58:02;20.90;59.50
11229;DHT22;5671;47.936;8.716;2023-08-01T15:00:33;20.90;57.30
11229;DHT22;5671;47.936;8.716;2023-08-01T15:03:00;20.70;57.50
11229;DHT22;5671;47.936;8.716;2023-08-01T15:05:27;21.00;59.00
11229;DHT22;5671;47.936;8.716;2023-08-01T15:07:55;21.20;58.10
11229;DHT22;5671;47.936;8.716;2023-08-01T15:10:22;21.20;58.00
11229;DHT22;5671;47.936;8.716;2023-08-01T15:12:49;21.00;57.20
11229;DHT22;5671;47.936;8.716;2023-08-01T15:15:17;21.30;56.70
11229;DHT22;5671;47.936;8.716;2023-08-01T15:17:44;21.40;56.60
11229;DHT22;5671;47.936;8.716;2023-08-01T15:20:11;21.40;56.20
11229;DHT22;5671;47.936;8.716;2023-08-01T15:22:38;21.50;55.60
11229;DHT22;5671;47.936;8.716;2023-08-01T15:25:07;21.60;56.60
11229;DHT22;5671;47.936;8.716;2023-08-01T15:27:34;21.70;56.50
11229;DHT22;5671;47.936;8.716;2023-08-01T15:30:01;21.90;57.60
11229;DHT22;5671;47.936;8.716;2023-08-01T15:32:28;21.80;55.70
11229;DHT22;5671;47.936;8.716;2023-08-01T15:34:55;21.80;55.90
11229;DHT22;5671;47.936;8.716;2023-08-01T15:37:22;21.80;56.70
11229;DHT22;5671;47.936;8.716;2023-08-01T15:39:49;21.70;56.20
11229;DHT22;5671;47.936;8.716;2023-08-01T15:42:17;21.70;56.10
11229;DHT22;5671;47.936;8.716;2023-08-01T15:44:44;21.60;56.20
11229;DHT22;5671;47.936;8.716;2023-08-01T15:47:10;21.20;57.30
11229;DHT22;5671;47.936;8.716;2023-08-01T15:49:37;21.00;57.00